Anson, Texas
Current Conditions -  °F | °C
As of 12:58 PM on Monday 22 Dec 2014 (Local Time) from KDYS Reporting Station
Clear Clear  
Wind Chill: 17°   Ceiling: Unl
Heat Index: 17°   Visibility: 10mi
Dew Point:   Wind: 15mph
Humidity: 38%   Direction: 10°N
Pressure: 29.68"   Gusts: 20mph
Location:  32.76°N, 99.9°W
Report Text: KDYS 221858Z AUTO 01013G17KT 10SM CLR 17/03 A2968 RMK AO2 SLP032 T01720026 $
Loading
Personal Weather Stations






























Interactive Weather Map New forecast layout! Learn more

10-Day Weather Forecast

Advertisements
Track Severe Weather on mobile